createdAt,value
2018-10-11T00:01:15.896Z,10.80
2018-10-11T00:03:44.542Z,10.80
2018-10-11T00:06:13.183Z,10.80
2018-10-11T00:08:41.961Z,10.80
2018-10-11T00:11:10.783Z,10.80
2018-10-11T00:13:40.237Z,10.70
2018-10-11T00:16:09.561Z,10.70
2018-10-11T00:18:38.823Z,10.80
2018-10-11T00:21:07.738Z,10.70
2018-10-11T00:23:36.921Z,10.70
2018-10-11T00:26:05.908Z,10.60
2018-10-11T00:28:34.665Z,10.60
2018-10-11T00:31:03.836Z,10.60
2018-10-11T00:33:32.679Z,10.60
2018-10-11T00:36:01.530Z,10.60
2018-10-11T00:38:30.558Z,10.40
2018-10-11T00:40:59.368Z,10.50
2018-10-11T00:43:27.837Z,10.50
2018-10-11T00:45:56.384Z,10.50
2018-10-11T00:48:25.275Z,10.60
2018-10-11T00:50:54.437Z,10.50
2018-10-11T00:53:23.199Z,10.50
2018-10-11T00:55:51.798Z,10.50
2018-10-11T00:58:20.488Z,10.40
2018-10-11T01:00:49.575Z,10.50
2018-10-11T01:03:18.672Z,10.50
2018-10-11T01:05:47.975Z,10.50
2018-10-11T01:08:16.759Z,10.30
2018-10-11T01:10:45.648Z,10.30
2018-10-11T01:13:14.432Z,10.30
2018-10-11T01:15:43.121Z,10.30
2018-10-11T01:18:11.978Z,10.30
2018-10-11T01:20:40.901Z,10.30
2018-10-11T01:23:10.020Z,10.40
2018-10-11T01:25:38.986Z,10.30
2018-10-11T01:28:07.941Z,10.30
2018-10-11T01:30:36.875Z,10.20
2018-10-11T01:33:05.711Z,10.10
2018-10-11T01:35:34.585Z,10.10
2018-10-11T01:38:03.473Z,10.20
2018-10-11T01:40:32.254Z,10.10
2018-10-11T01:43:05.137Z,10.00
2018-10-11T01:45:34.670Z,10.10
2018-10-11T01:48:03.327Z,10.20
2018-10-11T01:50:32.136Z,10.20
2018-10-11T01:53:00.736Z,10.20
2018-10-11T01:55:29.982Z,10.20
2018-10-11T01:57:59.693Z,10.20
2018-10-11T02:00:28.601Z,10.20
2018-10-11T02:02:58.601Z,10.10
2018-10-11T02:05:28.055Z,10.10
2018-10-11T02:07:57.537Z,10.10
2018-10-11T02:10:27.108Z,10.10
2018-10-11T02:12:56.175Z,10.00
2018-10-11T02:15:25.501Z,10.00
2018-10-11T02:17:54.916Z,10.00
2018-10-11T02:20:24.177Z,10.10
2018-10-11T02:22:52.831Z,10.00
2018-10-11T02:25:21.519Z,10.00
2018-10-11T02:27:50.186Z,10.00
2018-10-11T02:30:18.727Z,9.90
2018-10-11T02:32:47.197Z,10.00
2018-10-11T02:35:16.073Z,9.90
2018-10-11T02:37:44.820Z,9.90
2018-10-11T02:40:13.306Z,9.80
2018-10-11T02:42:41.805Z,9.90
2018-10-11T02:45:10.400Z,9.90
2018-10-11T02:47:39.250Z,9.90
2018-10-11T02:50:08.160Z,10.00
2018-10-11T02:52:37.133Z,9.90
2018-10-11T02:55:05.986Z,9.90
2018-10-11T02:57:45.769Z,9.80
2018-10-11T03:00:22.137Z,9.90
2018-10-11T03:02:50.936Z,9.80
2018-10-11T03:05:20.429Z,9.80
2018-10-11T03:07:49.136Z,9.70
2018-10-11T03:10:18.123Z,9.60
2018-10-11T03:12:47.092Z,9.70
2018-10-11T03:15:16.250Z,9.70
2018-10-11T03:17:45.065Z,9.70
2018-10-11T03:20:13.877Z,9.70
2018-10-11T03:22:42.806Z,9.70
2018-10-11T03:25:11.722Z,9.60
2018-10-11T03:27:40.518Z,9.70
2018-10-11T03:30:09.455Z,9.70
2018-10-11T03:32:38.473Z,9.70
2018-10-11T03:35:08.880Z,9.70
2018-10-11T03:37:37.647Z,9.70
2018-10-11T03:40:07.133Z,9.70
2018-10-11T03:42:37.384Z,9.70
2018-10-11T03:45:06.105Z,9.70
2018-10-11T03:47:35.713Z,9.60
2018-10-11T03:50:04.557Z,9.60
2018-10-11T03:52:33.460Z,9.60
2018-10-11T03:55:02.398Z,9.60
2018-10-11T03:57:31.104Z,9.60
2018-10-11T03:59:59.825Z,9.60
2018-10-11T04:02:28.496Z,9.50
2018-10-11T04:04:57.290Z,9.60
2018-10-11T04:07:26.652Z,9.60
2018-10-11T04:09:55.500Z,9.60
2018-10-11T04:12:24.648Z,9.60
2018-10-11T04:14:53.657Z,9.60
2018-10-11T04:17:22.774Z,9.50
2018-10-11T04:19:51.771Z,9.50
2018-10-11T04:22:20.671Z,9.50
2018-10-11T04:24:49.182Z,9.50
2018-10-11T04:27:17.727Z,9.50
2018-10-11T04:29:46.623Z,9.50
2018-10-11T04:32:15.396Z,9.50
2018-10-11T04:34:43.979Z,9.50
2018-10-11T04:37:12.778Z,9.40
2018-10-11T04:39:41.456Z,9.40
2018-10-11T04:42:10.590Z,9.40
2018-10-11T04:44:39.563Z,9.30
2018-10-11T04:47:08.295Z,9.20
2018-10-11T04:49:37.392Z,9.30
2018-10-11T04:52:06.019Z,9.40
2018-10-11T04:54:34.565Z,9.30
2018-10-11T04:57:03.382Z,9.30
2018-10-11T04:59:31.892Z,9.30
2018-10-11T05:02:00.353Z,9.30
2018-10-11T05:04:28.855Z,9.30
2018-10-11T05:06:57.523Z,9.30
2018-10-11T05:09:26.109Z,9.30
2018-10-11T05:11:56.176Z,9.40
2018-10-11T05:14:25.886Z,9.40
2018-10-11T05:16:55.597Z,9.30
2018-10-11T05:19:25.181Z,9.40
2018-10-11T05:21:54.834Z,9.40
2018-10-11T05:24:23.768Z,9.30
2018-10-11T05:26:52.850Z,9.20
2018-10-11T05:29:24.600Z,9.20
2018-10-11T05:31:53.873Z,9.00
2018-10-11T05:34:23.951Z,9.10
2018-10-11T05:36:53.931Z,9.20
2018-10-11T05:39:25.142Z,9.20
2018-10-11T05:42:59.116Z,9.20
2018-10-11T05:45:30.206Z,9.20
2018-10-11T05:47:59.296Z,9.20
2018-10-11T05:50:28.884Z,9.10
2018-10-11T05:52:58.466Z,9.10
2018-10-11T05:55:30.310Z,9.20
2018-10-11T05:57:59.957Z,9.10
2018-10-11T06:00:35.902Z,9.10
2018-10-11T06:03:19.711Z,9.10
2018-10-11T06:05:51.174Z,9.30
2018-10-11T06:11:30.478Z,9.30
2018-10-11T06:14:00.325Z,9.30
2018-10-11T06:16:29.626Z,9.30
2018-10-11T06:18:58.831Z,9.30
2018-10-11T06:21:30.185Z,9.30
2018-10-11T06:23:59.629Z,9.40
2018-10-11T06:26:28.020Z,9.30
2018-10-11T06:28:57.517Z,9.20
2018-10-11T06:31:26.566Z,9.20
2018-10-11T06:33:56.077Z,9.10
2018-10-11T06:36:26.245Z,9.10
2018-10-11T06:38:56.544Z,9.10
2018-10-11T06:41:25.514Z,9.10
2018-10-11T06:43:54.916Z,9.00
2018-10-11T06:46:24.083Z,9.00
2018-10-11T06:48:52.801Z,9.10
2018-10-11T06:51:21.792Z,9.10
2018-10-11T06:53:51.457Z,9.10
2018-10-11T06:56:20.945Z,9.30
2018-10-11T06:58:50.223Z,9.40
2018-10-11T07:01:19.597Z,9.50
2018-10-11T07:03:50.447Z,9.60
2018-10-11T07:06:19.696Z,9.60
2018-10-11T07:08:48.815Z,9.60
2018-10-11T07:11:24.174Z,9.80
2018-10-11T07:13:54.188Z,10.00
2018-10-11T07:16:23.961Z,10.20
2018-10-11T07:18:53.546Z,10.30
2018-10-11T07:21:28.319Z,10.50
2018-10-11T07:23:58.187Z,10.60
2018-10-11T07:26:27.686Z,10.60
2018-10-11T07:28:57.174Z,10.80
2018-10-11T07:31:26.696Z,10.90
2018-10-11T07:33:56.043Z,11.00
2018-10-11T07:36:53.502Z,11.10
2018-10-11T07:51:10.856Z,11.20
2018-10-11T07:53:39.998Z,11.70
2018-10-11T07:56:10.420Z,11.80
2018-10-11T07:58:42.788Z,11.90
2018-10-11T08:01:20.073Z,12.00
2018-10-11T08:03:53.346Z,12.10
2018-10-11T08:06:32.853Z,12.20
2018-10-11T08:09:03.335Z,12.20
2018-10-11T08:11:32.797Z,12.40
2018-10-11T08:14:02.050Z,12.50
2018-10-11T08:16:31.623Z,12.50
2018-10-11T08:19:00.887Z,12.60
2018-10-11T08:21:30.082Z,12.70
2018-10-11T08:23:58.849Z,12.80
2018-10-11T08:26:28.544Z,12.90
2018-10-11T08:28:58.178Z,13.00
2018-10-11T08:31:27.015Z,13.10
2018-10-11T08:33:56.165Z,13.20
2018-10-11T08:36:25.100Z,13.20
2018-10-11T08:38:54.566Z,13.30
2018-10-11T08:41:23.866Z,13.40
2018-10-11T08:43:53.188Z,13.40
2018-10-11T08:46:21.994Z,13.60
2018-10-11T08:48:51.305Z,13.60
2018-10-11T08:51:20.414Z,13.80
2018-10-11T08:53:49.050Z,13.80
2018-10-11T08:56:18.289Z,14.00
2018-10-11T08:58:47.145Z,14.00
2018-10-11T09:01:16.158Z,14.10
2018-10-11T09:03:45.660Z,14.20
2018-10-11T09:06:14.682Z,14.30
2018-10-11T09:08:43.793Z,14.40
2018-10-11T09:11:13.045Z,14.50
2018-10-11T09:13:43.185Z,14.50
2018-10-11T09:16:12.384Z,14.60
2018-10-11T09:18:41.490Z,14.60
2018-10-11T09:21:10.429Z,14.80
2018-10-11T09:23:39.815Z,14.80
2018-10-11T09:26:08.976Z,14.90
2018-10-11T09:28:37.586Z,15.00
2018-10-11T09:31:06.620Z,15.00
2018-10-11T09:33:35.497Z,15.00
2018-10-11T09:36:04.922Z,15.10
2018-10-11T09:38:33.848Z,15.20
2018-10-11T09:41:02.687Z,15.30
2018-10-11T09:43:31.341Z,15.30
2018-10-11T09:46:00.112Z,15.30
2018-10-11T09:48:29.088Z,15.50
2018-10-11T09:50:58.250Z,15.50
2018-10-11T09:53:27.281Z,15.60
2018-10-11T09:55:55.919Z,15.60
2018-10-11T09:58:25.033Z,15.70
2018-10-11T10:00:58.906Z,15.80
2018-10-11T10:03:29.036Z,15.80
2018-10-11T10:05:58.086Z,15.80
2018-10-11T10:08:27.145Z,15.80
2018-10-11T10:10:56.148Z,15.80
2018-10-11T10:13:25.723Z,15.90
2018-10-11T10:15:55.069Z,15.90
2018-10-11T10:18:25.999Z,16.00
2018-10-11T10:20:55.273Z,16.10
2018-10-11T10:23:24.708Z,16.10
2018-10-11T10:25:53.410Z,16.10
2018-10-11T10:28:22.270Z,16.20
2018-10-11T10:30:53.291Z,16.20
2018-10-11T10:33:23.049Z,16.30
2018-10-11T10:35:51.786Z,16.20
2018-10-11T10:38:21.837Z,16.30
2018-10-11T10:40:50.837Z,16.30
2018-10-11T10:43:20.101Z,16.40
2018-10-11T10:45:48.836Z,16.40
2018-10-11T10:48:18.123Z,16.50
2018-10-11T10:50:47.300Z,16.50
2018-10-11T10:53:16.416Z,16.60
2018-10-11T10:55:45.630Z,16.70
2018-10-11T10:58:14.658Z,16.70
2018-10-11T11:03:38.506Z,16.80
2018-10-11T11:06:07.978Z,16.90
2018-10-11T11:08:37.849Z,16.90
2018-10-11T11:11:07.619Z,17.00
2018-10-11T11:13:37.800Z,17.00
2018-10-11T11:16:06.984Z,17.10
2018-10-11T11:18:35.921Z,16.90
2018-10-11T11:21:05.019Z,16.80
2018-10-11T11:23:33.775Z,16.90
2018-10-11T11:26:02.476Z,17.10
2018-10-11T11:28:31.619Z,17.30
2018-10-11T11:31:00.552Z,17.40
2018-10-11T11:33:30.019Z,17.50
2018-10-11T11:36:02.561Z,17.50
2018-10-11T11:38:31.772Z,17.50
2018-10-11T11:41:02.336Z,17.60
2018-10-11T11:43:31.424Z,17.70
2018-10-11T11:46:00.510Z,17.70
2018-10-11T11:48:29.545Z,17.70
2018-10-11T11:51:00.994Z,17.80
2018-10-11T11:53:30.245Z,17.80
2018-10-11T11:56:01.635Z,17.80
2018-10-11T11:58:31.191Z,17.90
2018-10-11T12:01:00.669Z,17.90
2018-10-11T12:03:32.712Z,17.90
2018-10-11T12:06:02.219Z,18.00
2018-10-11T12:08:33.027Z,17.90
2018-10-11T12:11:03.796Z,17.90
2018-10-11T12:13:32.696Z,17.90
2018-10-11T12:16:02.851Z,17.90
2018-10-11T12:23:47.938Z,18.00
2018-10-11T12:26:20.386Z,18.00
2018-10-11T12:28:50.859Z,18.00
2018-10-11T12:31:31.430Z,18.00
2018-10-11T12:34:02.596Z,18.00
2018-10-11T12:36:36.217Z,18.10
2018-10-11T12:39:08.052Z,18.20
2018-10-11T12:41:37.230Z,18.40
2018-10-11T12:44:06.290Z,18.60
2018-10-11T12:46:37.679Z,18.70
2018-10-11T12:49:04.450Z,18.80
2018-10-11T12:51:33.978Z,18.80
2018-10-11T12:54:02.759Z,18.80
2018-10-11T12:56:32.008Z,18.80
2018-10-11T12:59:03.998Z,18.80
2018-10-11T13:01:32.857Z,18.80
2018-10-11T13:04:01.773Z,18.90
2018-10-11T13:06:31.756Z,18.90
2018-10-11T13:09:00.467Z,18.90
2018-10-11T13:11:29.344Z,18.80
2018-10-11T13:13:58.061Z,18.80
2018-10-11T13:16:26.934Z,18.70
2018-10-11T13:18:55.739Z,18.60
2018-10-11T13:21:24.958Z,18.50
2018-10-11T13:23:53.705Z,18.40
2018-10-11T13:26:22.730Z,18.20
2018-10-11T13:28:51.653Z,18.10
2018-10-11T13:31:20.767Z,18.00
2018-10-11T13:33:52.423Z,18.00
2018-10-11T13:36:18.714Z,17.90
2018-10-11T13:38:47.397Z,17.90
2018-10-11T13:41:16.429Z,17.70
2018-10-11T13:43:46.741Z,17.70
2018-10-11T13:46:16.125Z,17.60
2018-10-11T13:48:45.386Z,17.60
2018-10-11T13:51:14.446Z,17.50
2018-10-11T13:53:46.822Z,17.50
2018-10-11T13:56:12.316Z,17.40
2018-10-11T13:58:41.252Z,17.40
2018-10-11T14:01:10.379Z,17.30
2018-10-11T14:03:39.144Z,17.20
2018-10-11T14:06:07.966Z,17.20
2018-10-11T14:08:36.637Z,17.20
2018-10-11T14:11:05.837Z,17.20
2018-10-11T14:13:34.819Z,17.10
2018-10-11T14:16:04.399Z,17.20
2018-10-11T14:18:33.391Z,17.10
2018-10-11T14:21:18.853Z,17.10
2018-10-11T14:23:47.970Z,17.20
2018-10-11T14:26:17.557Z,17.10
2018-10-11T14:28:49.953Z,17.10
2018-10-11T14:31:19.772Z,17.10
2018-10-11T14:33:55.414Z,17.10
2018-10-11T14:36:28.282Z,17.10
2018-10-11T14:38:57.790Z,17.10
2018-10-11T14:41:28.375Z,17.10
2018-10-11T14:43:57.757Z,17.10
2018-10-11T14:46:27.210Z,17.00
2018-10-11T14:48:56.135Z,17.00
2018-10-11T14:51:25.428Z,17.00
2018-10-11T14:53:57.914Z,17.00
2018-10-11T14:56:23.642Z,17.00
2018-10-11T14:58:53.542Z,16.90
2018-10-11T15:01:22.791Z,16.90
2018-10-11T15:03:51.648Z,16.90
2018-10-11T15:06:20.719Z,16.90
2018-10-11T15:08:49.856Z,16.80
2018-10-11T15:11:19.068Z,16.80
2018-10-11T15:13:48.418Z,16.70
2018-10-11T15:16:17.541Z,16.70
2018-10-11T15:18:46.808Z,16.70
2018-10-11T15:21:15.470Z,16.60
2018-10-11T15:23:44.691Z,16.60
2018-10-11T15:26:13.655Z,16.60
2018-10-11T15:28:42.918Z,16.50
2018-10-11T15:31:20.224Z,16.50
2018-10-11T15:33:49.127Z,16.50
2018-10-11T15:36:18.233Z,16.40
2018-10-11T15:38:47.448Z,16.40
2018-10-11T15:41:16.327Z,16.30
2018-10-11T15:43:45.253Z,16.30
2018-10-11T15:46:13.946Z,16.30
2018-10-11T15:48:42.734Z,16.30
2018-10-11T15:51:11.900Z,16.20
2018-10-11T15:53:40.619Z,16.20
2018-10-11T15:56:09.709Z,16.10
2018-10-11T15:58:38.963Z,16.10
2018-10-11T16:01:08.357Z,16.00
2018-10-11T16:03:37.501Z,16.00
2018-10-11T16:06:06.363Z,16.00
2018-10-11T16:08:35.487Z,15.90
2018-10-11T16:11:04.294Z,15.90
2018-10-11T16:13:33.436Z,15.80
2018-10-11T16:16:02.333Z,15.80
2018-10-11T16:18:31.013Z,15.80
2018-10-11T16:20:59.597Z,15.80
2018-10-11T16:23:28.630Z,15.80
2018-10-11T16:25:57.794Z,15.80
2018-10-11T16:28:28.727Z,15.80
2018-10-11T16:30:58.201Z,15.70
2018-10-11T16:33:27.061Z,15.80
2018-10-11T16:35:56.882Z,15.70
2018-10-11T16:38:25.561Z,15.70
2018-10-11T16:40:54.396Z,15.70
2018-10-11T16:43:23.350Z,15.70
2018-10-11T16:45:52.197Z,15.70
2018-10-11T16:48:20.631Z,15.60
2018-10-11T16:50:49.562Z,15.60
2018-10-11T16:53:18.251Z,15.50
2018-10-11T16:55:47.289Z,15.50
2018-10-11T16:58:16.179Z,15.40
2018-10-11T17:00:45.174Z,15.40
2018-10-11T17:03:19.283Z,15.40
2018-10-11T17:09:03.286Z,15.30
2018-10-11T17:11:48.566Z,15.30
2018-10-11T17:14:25.673Z,15.30
2018-10-11T17:17:07.965Z,15.20
2018-10-11T17:19:36.817Z,15.20
2018-10-11T17:22:05.747Z,15.10
2018-10-11T17:24:34.226Z,15.10
2018-10-11T17:27:02.891Z,15.10
2018-10-11T17:29:31.349Z,15.10
2018-10-11T17:32:00.200Z,15.00
2018-10-11T17:34:29.023Z,15.00
2018-10-11T17:36:58.657Z,15.00
2018-10-11T17:39:27.296Z,15.00
2018-10-11T17:41:56.512Z,15.00
2018-10-11T17:44:25.086Z,15.00
2018-10-11T17:46:54.473Z,14.90
2018-10-11T17:49:23.987Z,14.90
2018-10-11T17:51:54.277Z,14.90
2018-10-11T17:54:22.875Z,14.90
2018-10-11T17:56:51.787Z,14.90
2018-10-11T17:59:20.452Z,14.80
2018-10-11T18:01:49.370Z,14.80
2018-10-11T18:04:18.944Z,14.80
2018-10-11T18:06:47.676Z,14.80
2018-10-11T18:09:16.175Z,14.70
2018-10-11T18:11:44.963Z,14.70
2018-10-11T18:14:13.907Z,14.80
2018-10-11T18:16:42.506Z,14.70
2018-10-11T18:19:11.096Z,14.70
2018-10-11T18:21:42.250Z,14.60
2018-10-11T18:24:10.937Z,14.60
2018-10-11T18:26:39.565Z,14.60
2018-10-11T18:29:08.186Z,14.60
2018-10-11T18:31:36.890Z,14.60
2018-10-11T18:34:05.604Z,14.60
2018-10-11T18:36:34.329Z,14.50
2018-10-11T18:39:03.274Z,14.50
2018-10-11T18:41:31.934Z,14.50
2018-10-11T18:44:00.530Z,14.50
2018-10-11T18:46:29.507Z,14.50
2018-10-11T18:48:58.073Z,14.40
2018-10-11T18:51:26.793Z,14.40
2018-10-11T18:53:55.333Z,14.40
2018-10-11T18:56:24.064Z,14.30
2018-10-11T18:58:52.674Z,14.30
2018-10-11T19:01:21.269Z,14.30
2018-10-11T19:03:49.985Z,14.20
2018-10-11T19:06:18.838Z,14.20
2018-10-11T19:08:47.786Z,14.10
2018-10-11T19:11:17.466Z,14.10
2018-10-11T19:13:46.594Z,14.10
2018-10-11T19:16:15.272Z,14.00
2018-10-11T19:18:43.827Z,14.00
2018-10-11T19:21:12.924Z,14.00
2018-10-11T19:23:41.419Z,14.00
2018-10-11T19:26:09.937Z,13.90
2018-10-11T19:28:38.687Z,13.90
2018-10-11T19:31:08.119Z,13.90
2018-10-11T19:33:36.847Z,13.90
2018-10-11T19:36:05.598Z,13.90
2018-10-11T19:38:34.407Z,13.90
2018-10-11T19:41:03.218Z,13.80
2018-10-11T19:43:31.938Z,13.80
2018-10-11T19:46:00.759Z,13.80
2018-10-11T19:48:29.499Z,13.80
2018-10-11T19:50:58.130Z,13.80
2018-10-11T19:53:26.782Z,13.80
2018-10-11T19:55:55.696Z,13.70
2018-10-11T19:58:24.465Z,13.70
2018-10-11T20:00:53.400Z,13.70
2018-10-11T20:03:22.211Z,13.70
2018-10-11T20:05:51.154Z,13.70
2018-10-11T20:08:20.105Z,13.70
2018-10-11T20:10:48.641Z,13.60
2018-10-11T20:13:17.629Z,13.70
2018-10-11T20:15:46.412Z,13.70
2018-10-11T20:18:16.616Z,13.70
2018-10-11T20:20:45.278Z,13.70
2018-10-11T20:23:14.111Z,13.70
2018-10-11T20:25:43.500Z,13.70
2018-10-11T20:28:12.400Z,13.70
2018-10-11T20:30:40.926Z,13.70
2018-10-11T20:33:09.990Z,13.70
2018-10-11T20:35:38.684Z,13.70
2018-10-11T20:38:07.369Z,13.70
2018-10-11T20:40:36.146Z,13.70
2018-10-11T20:43:04.758Z,13.70
2018-10-11T20:45:33.530Z,13.70
2018-10-11T20:48:05.673Z,13.70
2018-10-11T20:50:34.489Z,13.70
2018-10-11T20:53:03.387Z,13.70
2018-10-11T20:55:32.128Z,13.70
2018-10-11T20:58:00.857Z,13.70
2018-10-11T21:00:29.794Z,13.60
2018-10-11T21:02:58.469Z,13.70
2018-10-11T21:05:27.119Z,13.60
2018-10-11T21:07:55.877Z,13.60
2018-10-11T21:10:25.024Z,13.60
2018-10-11T21:12:54.089Z,13.60
2018-10-11T21:15:23.085Z,13.60
2018-10-11T21:17:52.463Z,13.60
2018-10-11T21:20:21.163Z,13.60
2018-10-11T21:22:49.852Z,13.60
2018-10-11T21:25:18.639Z,13.60
2018-10-11T21:27:47.463Z,13.60
2018-10-11T21:30:16.450Z,13.60
2018-10-11T21:32:45.053Z,13.60
2018-10-11T21:35:14.026Z,13.60
2018-10-11T21:37:42.923Z,13.60
2018-10-11T21:40:11.862Z,13.60
2018-10-11T21:42:40.805Z,13.50
2018-10-11T21:45:10.009Z,13.60
2018-10-11T21:47:38.871Z,13.50
2018-10-11T21:50:08.971Z,13.50
2018-10-11T21:52:38.167Z,13.50
2018-10-11T21:55:07.066Z,13.50
2018-10-11T21:57:35.770Z,13.50
2018-10-11T22:00:05.378Z,13.50
2018-10-11T22:02:34.310Z,13.50
2018-10-11T22:05:02.964Z,13.50
2018-10-11T22:07:32.029Z,13.50
2018-10-11T22:10:00.939Z,13.50
2018-10-11T22:12:29.800Z,13.50
2018-10-11T22:14:58.366Z,13.50
2018-10-11T22:17:27.328Z,13.50
2018-10-11T22:19:55.945Z,13.50
2018-10-11T22:22:24.654Z,13.50
2018-10-11T22:24:53.366Z,13.50
2018-10-11T22:27:22.073Z,13.50
2018-10-11T22:29:50.909Z,13.50
2018-10-11T22:32:19.375Z,13.50
2018-10-11T22:34:48.046Z,13.50
2018-10-11T22:37:16.654Z,13.40
2018-10-11T22:39:45.466Z,13.50
2018-10-11T22:42:14.195Z,13.40
2018-10-11T22:44:42.752Z,13.40
2018-10-11T22:47:11.515Z,13.40
2018-10-11T22:49:40.107Z,13.40
2018-10-11T22:52:08.941Z,13.40
2018-10-11T22:54:37.700Z,13.40
2018-10-11T22:57:06.267Z,13.40
2018-10-11T22:59:34.775Z,13.40
2018-10-11T23:02:03.299Z,13.30
2018-10-11T23:04:32.035Z,13.30
2018-10-11T23:07:00.519Z,13.30
2018-10-11T23:09:29.104Z,13.30
2018-10-11T23:11:57.647Z,13.20
2018-10-11T23:14:26.246Z,13.20
2018-10-11T23:16:54.669Z,13.20
2018-10-11T23:19:24.418Z,13.10
2018-10-11T23:21:53.195Z,13.10
2018-10-11T23:24:21.665Z,13.00
2018-10-11T23:26:50.333Z,13.00
2018-10-11T23:29:19.103Z,13.00
2018-10-11T23:31:48.721Z,12.90
2018-10-11T23:34:17.374Z,12.90
2018-10-11T23:36:46.085Z,12.90
2018-10-11T23:39:14.843Z,12.90
2018-10-11T23:41:43.596Z,12.90
2018-10-11T23:44:12.499Z,12.90
2018-10-11T23:46:41.128Z,12.90
2018-10-11T23:49:10.157Z,12.80
2018-10-11T23:51:39.171Z,12.80
2018-10-11T23:54:08.419Z,12.80
2018-10-11T23:56:36.815Z,12.80
2018-10-11T23:59:05.279Z,12.80
